createdAt,value
2019-05-16T00:01:30.033Z,48.17
2019-05-16T00:04:02.577Z,47.89
2019-05-16T00:06:31.984Z,48.38
2019-05-16T00:09:01.449Z,48.68
2019-05-16T00:11:31.016Z,48.55
2019-05-16T00:14:00.459Z,48.25
2019-05-16T00:16:29.901Z,48.52
2019-05-16T00:18:59.450Z,48.47
2019-05-16T00:21:28.910Z,48.86
2019-05-16T00:23:58.733Z,49.14
2019-05-16T00:26:28.503Z,48.78
2019-05-16T00:28:58.949Z,49.09
2019-05-16T00:31:28.782Z,49.00
2019-05-16T00:33:58.314Z,48.94
2019-05-16T00:36:27.889Z,48.81
2019-05-16T00:38:59.146Z,49.20
2019-05-16T00:41:30.021Z,49.22
2019-05-16T00:43:59.471Z,49.19
2019-05-16T00:46:28.896Z,49.32
2019-05-16T00:49:00.981Z,49.94
2019-05-16T00:51:31.597Z,49.73
2019-05-16T00:54:03.589Z,49.70
2019-05-16T00:56:33.781Z,49.46
2019-05-16T00:59:07.767Z,49.77
2019-05-16T01:01:38.981Z,49.75
2019-05-16T01:04:08.972Z,50.21
2019-05-16T01:06:40.678Z,50.21
2019-05-16T01:09:11.288Z,49.79
2019-05-16T01:11:41.058Z,50.09
2019-05-16T01:14:11.665Z,49.90
2019-05-16T01:16:41.091Z,49.74
2019-05-16T01:19:10.717Z,49.96
2019-05-16T01:21:40.164Z,50.25
2019-05-16T01:24:09.571Z,50.50
2019-05-16T01:26:39.352Z,50.41
2019-05-16T01:29:11.655Z,50.28
2019-05-16T01:31:40.011Z,50.19
2019-05-16T01:34:09.697Z,50.09
2019-05-16T01:36:40.803Z,50.06
2019-05-16T01:39:10.586Z,50.16
2019-05-16T01:41:41.428Z,50.03
2019-05-16T01:44:10.858Z,49.89
2019-05-16T01:46:40.281Z,49.66
2019-05-16T01:49:09.927Z,49.35
2019-05-16T01:51:39.472Z,49.06
2019-05-16T01:54:08.992Z,49.21
2019-05-16T01:56:41.003Z,48.84
2019-05-16T01:59:10.431Z,48.80
2019-05-16T02:01:39.876Z,48.87
2019-05-16T02:04:12.241Z,48.80
2019-05-16T02:06:50.412Z,48.65
2019-05-16T02:09:11.845Z,48.74
2019-05-16T02:11:41.547Z,49.05
2019-05-16T02:14:10.999Z,48.58
2019-05-16T02:16:40.406Z,48.54
2019-05-16T02:19:09.903Z,48.48
2019-05-16T02:21:39.325Z,48.37
2019-05-16T02:24:09.078Z,48.35
2019-05-16T02:26:41.374Z,48.54
2019-05-16T02:29:13.775Z,48.28
2019-05-16T02:31:42.424Z,48.36
2019-05-16T02:34:12.210Z,48.17
2019-05-16T02:36:41.705Z,48.32
2019-05-16T02:39:11.538Z,48.07
2019-05-16T02:41:45.616Z,47.80
2019-05-16T02:44:12.369Z,48.07
2019-05-16T02:46:42.287Z,48.01
2019-05-16T02:49:11.923Z,48.10
2019-05-16T02:51:41.403Z,48.24
2019-05-16T02:54:11.266Z,48.17
2019-05-16T02:56:41.772Z,48.17
2019-05-16T02:59:12.079Z,47.65
2019-05-16T03:01:41.602Z,47.65
2019-05-16T03:04:11.346Z,47.62
2019-05-16T03:06:41.478Z,47.62
2019-05-16T03:09:11.583Z,47.45
2019-05-16T03:11:42.859Z,47.42
2019-05-16T03:14:14.483Z,47.25
2019-05-16T03:16:46.812Z,47.46
2019-05-16T03:19:16.892Z,47.53
2019-05-16T03:21:47.314Z,47.62
2019-05-16T03:24:16.824Z,47.47
2019-05-16T03:26:46.326Z,47.08
2019-05-16T03:29:15.757Z,46.99
2019-05-16T03:31:45.629Z,47.01
2019-05-16T03:34:17.012Z,46.73
2019-05-16T03:36:46.588Z,46.56
2019-05-16T03:39:16.010Z,46.75
2019-05-16T03:41:45.631Z,46.87
2019-05-16T03:44:15.111Z,46.79
2019-05-16T03:46:45.255Z,46.48
2019-05-16T03:49:14.769Z,46.21
2019-05-16T03:51:44.194Z,46.31
2019-05-16T03:54:13.556Z,46.33
2019-05-16T03:56:43.096Z,46.62
2019-05-16T03:59:12.475Z,46.39
2019-05-16T04:01:41.880Z,46.27
2019-05-16T04:04:12.106Z,46.39
2019-05-16T04:06:41.923Z,46.07
2019-05-16T04:09:12.495Z,45.71
2019-05-16T04:11:42.975Z,45.64
2019-05-16T04:14:12.604Z,45.56
2019-05-16T04:16:42.047Z,45.42
2019-05-16T04:19:11.882Z,45.24
2019-05-16T04:21:42.358Z,44.88
2019-05-16T04:24:12.594Z,45.07
2019-05-16T04:26:42.318Z,44.79
2019-05-16T04:29:12.226Z,44.49
2019-05-16T04:31:41.892Z,44.25
2019-05-16T04:34:12.003Z,44.20
2019-05-16T04:36:41.598Z,44.30
2019-05-16T04:39:11.760Z,44.51
2019-05-16T04:41:41.716Z,44.35
2019-05-16T04:44:11.889Z,44.15
2019-05-16T04:46:41.505Z,44.01
2019-05-16T04:49:11.599Z,43.98
2019-05-16T04:51:41.525Z,43.74
2019-05-16T04:54:11.739Z,43.41
2019-05-16T04:56:41.685Z,43.43
2019-05-16T04:59:16.248Z,43.40
2019-05-16T05:01:42.378Z,42.75
2019-05-16T05:04:15.529Z,42.75
2019-05-16T05:06:43.221Z,43.31
2019-05-16T05:09:12.745Z,43.36
2019-05-16T05:11:42.385Z,43.92
2019-05-16T05:14:12.146Z,43.72
2019-05-16T05:16:41.638Z,43.72
2019-05-16T05:19:11.304Z,43.60
2019-05-16T05:21:41.193Z,43.71
2019-05-16T05:24:11.108Z,43.49
2019-05-16T05:26:41.723Z,43.45
2019-05-16T05:29:11.096Z,43.45
2019-05-16T05:31:44.887Z,43.63
2019-05-16T05:34:11.747Z,43.78
2019-05-16T05:36:41.180Z,43.26
2019-05-16T05:39:15.244Z,42.89
2019-05-16T05:41:41.882Z,42.64
2019-05-16T05:44:11.296Z,42.73
2019-05-16T05:46:40.745Z,42.84
2019-05-16T05:49:10.759Z,42.89
2019-05-16T05:51:40.717Z,43.05
2019-05-16T05:54:11.074Z,42.99
2019-05-16T05:56:40.719Z,43.77
2019-05-16T05:59:11.477Z,43.50
2019-05-16T06:01:41.085Z,43.59
2019-05-16T06:04:10.791Z,43.58
2019-05-16T06:06:42.837Z,43.66
2019-05-16T06:09:25.315Z,43.48
2019-05-16T06:11:42.887Z,43.94
2019-05-16T06:14:12.336Z,44.30
2019-05-16T06:16:41.738Z,44.73
2019-05-16T06:19:11.303Z,45.06
2019-05-16T06:21:44.671Z,44.83
2019-05-16T06:24:11.876Z,44.65
2019-05-16T06:26:41.489Z,44.41
2019-05-16T06:29:10.933Z,44.45
2019-05-16T06:31:40.801Z,44.67
2019-05-16T06:34:15.118Z,44.35
2019-05-16T06:36:42.038Z,43.90
2019-05-16T06:39:12.419Z,43.63
2019-05-16T06:41:41.940Z,43.16
2019-05-16T06:44:11.364Z,43.50
2019-05-16T06:46:56.322Z,43.67
2019-05-16T06:49:12.178Z,43.33
2019-05-16T06:51:41.773Z,42.73
2019-05-16T06:54:11.477Z,42.70
2019-05-16T06:56:40.947Z,42.78
2019-05-16T06:59:10.533Z,42.85
2019-05-16T07:01:40.552Z,42.40
2019-05-16T07:04:10.631Z,41.93
2019-05-16T07:06:54.741Z,42.09
2019-05-16T07:09:11.458Z,41.92
2019-05-16T07:11:41.139Z,41.85
2019-05-16T07:14:10.818Z,41.84
2019-05-16T07:16:40.685Z,41.45
2019-05-16T07:19:10.701Z,40.91
2019-05-16T07:21:40.338Z,40.75
2019-05-16T07:24:10.910Z,40.33
2019-05-16T07:26:40.879Z,40.10
2019-05-16T07:29:10.989Z,40.08
2019-05-16T07:31:40.757Z,39.47
2019-05-16T07:34:12.676Z,38.81
2019-05-16T07:36:41.483Z,39.16
2019-05-16T07:39:11.052Z,39.59
2019-05-16T07:41:40.990Z,40.40
2019-05-16T07:44:11.020Z,40.35
2019-05-16T07:46:44.518Z,40.99
2019-05-16T07:49:12.136Z,41.48
2019-05-16T07:51:41.601Z,42.46
2019-05-16T07:54:11.092Z,43.30
2019-05-16T07:56:41.100Z,43.52
2019-05-16T07:59:10.630Z,44.20
2019-05-16T08:01:41.693Z,44.10
2019-05-16T08:04:11.429Z,44.33
2019-05-16T08:06:41.690Z,44.40
2019-05-16T08:09:12.697Z,44.73
2019-05-16T08:11:42.762Z,44.80
2019-05-16T08:14:12.264Z,44.89
2019-05-16T08:16:41.706Z,45.40
2019-05-16T08:19:11.175Z,46.05
2019-05-16T08:24:15.087Z,46.10
2019-05-16T08:26:43.685Z,46.31
2019-05-16T08:29:13.605Z,46.47
2019-05-16T08:31:43.421Z,46.50
2019-05-16T08:34:12.949Z,47.30
2019-05-16T08:36:42.407Z,47.44
2019-05-16T08:39:11.947Z,46.77
2019-05-16T08:41:42.450Z,46.96
2019-05-16T08:44:12.689Z,47.24
2019-05-16T08:46:44.013Z,46.76
2019-05-16T08:49:13.623Z,47.49
2019-05-16T08:50:06.462Z,46.67
2019-05-16T08:51:43.067Z,48.01
2019-05-16T08:54:13.650Z,48.50
2019-05-16T08:56:44.564Z,48.24
2019-05-16T08:59:14.271Z,48.52
2019-05-16T09:01:52.153Z,49.15
2019-05-16T09:04:15.359Z,49.97
2019-05-16T09:06:44.822Z,49.57
2019-05-16T09:09:29.624Z,50.18
2019-05-16T09:11:48.624Z,50.08
2019-05-16T09:14:17.342Z,50.12
2019-05-16T09:16:47.966Z,50.47
2019-05-16T09:19:17.659Z,50.46
2019-05-16T09:21:47.580Z,50.22
2019-05-16T09:24:17.992Z,50.19
2019-05-16T09:26:47.946Z,50.72
2019-05-16T09:29:17.406Z,50.42
2019-05-16T09:32:11.460Z,49.97
2019-05-16T09:34:18.441Z,49.86
2019-05-16T09:36:48.271Z,49.77
2019-05-16T09:39:18.018Z,49.47
2019-05-16T09:41:54.408Z,49.42
2019-05-16T09:44:18.741Z,49.43
2019-05-16T09:46:48.262Z,49.21
2019-05-16T09:49:24.251Z,49.58
2019-05-16T09:51:49.073Z,49.12
2019-05-16T09:54:18.491Z,48.64
2019-05-16T09:56:48.323Z,48.17
2019-05-16T09:59:17.785Z,48.30
2019-05-16T10:01:47.961Z,47.92
2019-05-16T10:04:17.768Z,47.92
2019-05-16T10:06:47.615Z,47.70
2019-05-16T10:09:17.669Z,47.67
2019-05-16T10:11:49.424Z,47.16
2019-05-16T10:14:18.473Z,47.04
2019-05-16T10:16:48.055Z,47.36
2019-05-16T10:19:17.789Z,47.99
2019-05-16T10:21:47.301Z,49.08
2019-05-16T10:24:16.759Z,48.76
2019-05-16T10:26:48.528Z,48.76
2019-05-16T10:29:18.634Z,48.85
2019-05-16T10:31:52.859Z,50.08
2019-05-16T10:34:19.633Z,52.00
2019-05-16T10:36:49.040Z,54.03
2019-05-16T10:39:18.489Z,54.87
2019-05-16T10:41:48.057Z,55.94
2019-05-16T10:44:17.758Z,57.37
2019-05-16T10:46:48.051Z,58.60
2019-05-16T10:49:32.838Z,60.12
2019-05-16T10:51:48.948Z,60.97
2019-05-16T10:54:18.730Z,61.55
2019-05-16T10:56:48.640Z,62.92
2019-05-16T11:01:49.397Z,64.18
2019-05-16T11:04:29.134Z,65.04
2019-05-16T11:06:50.183Z,64.77
2019-05-16T11:09:20.080Z,65.88
2019-05-16T11:11:49.968Z,66.30
2019-05-16T11:14:19.449Z,66.66
2019-05-16T11:16:48.910Z,66.94
2019-05-16T11:19:24.283Z,67.16
2019-05-16T11:21:49.724Z,67.87
2019-05-16T11:24:19.222Z,68.06
2019-05-16T11:26:48.901Z,68.66
2019-05-16T11:29:18.342Z,68.46
2019-05-16T11:31:47.820Z,69.08
2019-05-16T11:34:17.488Z,69.26
2019-05-16T11:36:47.835Z,69.93
2019-05-16T11:39:17.644Z,69.59
2019-05-16T11:41:47.643Z,69.72
2019-05-16T11:44:17.782Z,68.97
2019-05-16T11:46:49.039Z,67.99
2019-05-16T11:49:18.707Z,68.40
2019-05-16T11:51:48.098Z,67.84
2019-05-16T11:54:17.614Z,66.96
2019-05-16T11:56:47.107Z,65.53
2019-05-16T11:59:17.245Z,65.29
2019-05-16T12:01:47.536Z,65.25
2019-05-16T12:04:17.599Z,64.74
2019-05-16T12:06:47.144Z,65.47
2019-05-16T12:09:17.745Z,65.71
2019-05-16T12:11:47.668Z,66.61
2019-05-16T12:14:19.505Z,66.70
2019-05-16T12:16:49.450Z,67.09
2019-05-16T12:19:19.096Z,67.72
2019-05-16T12:21:48.564Z,68.28
2019-05-16T12:24:32.316Z,69.76
2019-05-16T12:26:49.338Z,69.21
2019-05-16T12:29:18.823Z,69.95
2019-05-16T12:31:57.474Z,70.19
2019-05-16T12:34:19.605Z,69.63
2019-05-16T12:36:49.071Z,69.55
2019-05-16T12:39:18.601Z,70.23
2019-05-16T12:41:49.178Z,69.95
2019-05-16T12:44:19.024Z,69.71
2019-05-16T12:46:48.569Z,70.26
2019-05-16T12:49:18.171Z,70.06
2019-05-16T12:51:47.598Z,70.49
2019-05-16T12:54:18.242Z,70.55
2019-05-16T12:56:48.531Z,70.57
2019-05-16T12:59:21.501Z,69.93
2019-05-16T13:01:49.276Z,69.54
2019-05-16T13:04:19.449Z,69.45
2019-05-16T13:06:49.009Z,68.84
2019-05-16T13:09:18.727Z,68.73
2019-05-16T13:11:48.436Z,68.35
2019-05-16T13:14:17.829Z,68.29
2019-05-16T13:16:47.577Z,66.98
2019-05-16T13:19:18.154Z,66.61
2019-05-16T13:21:48.197Z,65.65
2019-05-16T13:24:18.659Z,65.30
2019-05-16T13:26:48.694Z,64.52
2019-05-16T13:29:18.343Z,63.86
2019-05-16T13:31:48.088Z,62.18
2019-05-16T13:34:18.055Z,63.29
2019-05-16T13:36:47.747Z,62.07
2019-05-16T13:39:17.332Z,61.84
2019-05-16T13:41:46.884Z,62.22
2019-05-16T13:44:22.638Z,60.31
2019-05-16T13:46:47.592Z,58.87
2019-05-16T13:49:18.008Z,59.67
2019-05-16T13:51:47.904Z,59.21
2019-05-16T13:54:17.797Z,57.84
2019-05-16T13:56:48.358Z,56.96
2019-05-16T13:59:18.135Z,56.88
2019-05-16T14:01:47.612Z,56.37
2019-05-16T14:04:17.539Z,55.61
2019-05-16T14:06:47.714Z,56.48
2019-05-16T14:09:17.268Z,56.34
2019-05-16T14:11:47.628Z,55.88
2019-05-16T14:14:32.223Z,56.39
2019-05-16T14:16:48.315Z,56.95
2019-05-16T14:19:18.020Z,56.87
2019-05-16T14:21:50.901Z,57.56
2019-05-16T14:24:20.318Z,57.65
2019-05-16T14:26:50.270Z,57.67
2019-05-16T14:29:19.719Z,58.39
2019-05-16T14:31:49.173Z,58.27
2019-05-16T14:34:18.781Z,58.10
2019-05-16T14:36:48.270Z,58.17
2019-05-16T14:39:19.264Z,58.22
2019-05-16T14:41:49.321Z,58.26
2019-05-16T14:44:18.788Z,58.33
2019-05-16T14:46:48.217Z,58.15
2019-05-16T14:49:17.747Z,58.53
2019-05-16T14:51:47.907Z,58.68
2019-05-16T14:54:17.475Z,58.71
2019-05-16T14:56:47.696Z,58.50
2019-05-16T14:59:17.290Z,58.23
2019-05-16T15:01:47.442Z,57.75
2019-05-16T15:04:17.349Z,57.88
2019-05-16T15:06:47.184Z,57.61
2019-05-16T15:09:17.604Z,57.60
2019-05-16T15:11:47.452Z,57.86
2019-05-16T15:14:17.507Z,57.70
2019-05-16T15:16:49.656Z,57.76
2019-05-16T15:19:18.712Z,57.43
2019-05-16T15:21:48.219Z,57.57
2019-05-16T15:24:17.997Z,57.63
2019-05-16T15:26:47.598Z,57.81
2019-05-16T15:29:17.044Z,58.09
2019-05-16T15:31:46.908Z,57.87
2019-05-16T15:34:16.529Z,57.88
2019-05-16T15:36:46.722Z,58.31
2019-05-16T15:39:16.985Z,58.30
2019-05-16T15:41:46.946Z,58.50
2019-05-16T15:44:17.169Z,59.80
2019-05-16T15:46:47.930Z,60.51
2019-05-16T15:49:18.287Z,61.04
2019-05-16T15:51:48.904Z,62.63
2019-05-16T15:54:23.238Z,64.66
2019-05-16T15:56:54.228Z,65.11
2019-05-16T15:59:23.664Z,66.07
2019-05-16T16:01:53.109Z,66.72
2019-05-16T16:04:22.572Z,67.10
2019-05-16T16:06:51.984Z,67.73
2019-05-16T16:09:21.402Z,67.71
2019-05-16T16:11:50.838Z,68.45
2019-05-16T16:14:20.266Z,69.16
2019-05-16T16:16:51.020Z,69.62
2019-05-16T16:19:20.722Z,69.57
2019-05-16T16:21:50.162Z,69.00
2019-05-16T16:24:19.659Z,69.50
2019-05-16T16:26:49.079Z,69.77
2019-05-16T16:29:18.504Z,70.13
2019-05-16T16:31:48.383Z,70.29
2019-05-16T16:34:17.961Z,70.75
2019-05-16T16:36:48.319Z,71.39
2019-05-16T16:39:17.757Z,71.67
2019-05-16T16:41:47.990Z,71.72
2019-05-16T16:44:18.073Z,72.35
2019-05-16T16:46:47.605Z,72.69
2019-05-16T16:49:17.492Z,73.31
2019-05-16T16:51:47.995Z,73.89
2019-05-16T16:54:18.852Z,74.12
2019-05-16T16:56:48.612Z,74.36
2019-05-16T16:59:18.093Z,74.64
2019-05-16T17:01:48.016Z,74.52
2019-05-16T17:04:17.685Z,74.73
2019-05-16T17:06:47.192Z,75.29
2019-05-16T17:09:16.663Z,75.90
2019-05-16T17:11:46.689Z,75.79
2019-05-16T17:14:17.325Z,75.88
2019-05-16T17:16:47.516Z,75.98
2019-05-16T17:19:17.222Z,76.12
2019-05-16T17:22:02.456Z,76.27
2019-05-16T17:24:17.791Z,76.76
2019-05-16T17:26:48.023Z,76.76
2019-05-16T17:29:17.398Z,76.47
2019-05-16T17:31:55.521Z,76.13
2019-05-16T17:34:18.151Z,76.80
2019-05-16T17:36:47.600Z,77.07
2019-05-16T17:39:18.247Z,76.78
2019-05-16T17:41:54.636Z,76.92
2019-05-16T17:44:20.154Z,76.88
2019-05-16T17:46:52.748Z,77.16
2019-05-16T17:49:22.061Z,77.00
2019-05-16T17:51:51.650Z,77.09
2019-05-16T17:54:21.138Z,76.90
2019-05-16T17:56:50.630Z,77.09
2019-05-16T17:59:20.260Z,77.22
2019-05-16T18:01:49.686Z,77.16
2019-05-16T18:04:19.270Z,77.10
2019-05-16T18:06:48.753Z,77.32
2019-05-16T18:09:18.203Z,77.58
2019-05-16T18:11:47.958Z,77.68
2019-05-16T18:14:17.457Z,77.45
2019-05-16T18:16:53.807Z,77.89
2019-05-16T18:19:18.068Z,78.44
2019-05-16T18:21:47.568Z,78.45
2019-05-16T18:24:17.033Z,79.07
2019-05-16T18:26:46.537Z,78.79
2019-05-16T18:29:16.408Z,78.39
2019-05-16T18:31:47.166Z,78.00
2019-05-16T18:34:17.114Z,78.14
2019-05-16T18:36:47.699Z,78.26
2019-05-16T18:39:17.173Z,78.48
2019-05-16T18:41:47.227Z,78.33
2019-05-16T18:44:16.861Z,78.26
2019-05-16T18:46:47.179Z,78.33
2019-05-16T18:49:16.821Z,77.98
2019-05-16T18:51:46.631Z,78.89
2019-05-16T18:54:17.370Z,78.68
2019-05-16T18:56:47.495Z,78.24
2019-05-16T18:59:17.027Z,78.22
2019-05-16T19:01:47.125Z,77.77
2019-05-16T19:04:17.547Z,78.09
2019-05-16T19:06:47.268Z,78.65
2019-05-16T19:09:16.783Z,78.15
2019-05-16T19:11:47.608Z,78.06
2019-05-16T19:14:17.090Z,78.00
2019-05-16T19:16:48.989Z,78.20
2019-05-16T19:19:18.003Z,78.18
2019-05-16T19:21:47.443Z,78.25
2019-05-16T19:24:16.868Z,78.24
2019-05-16T19:26:47.099Z,78.88
2019-05-16T19:29:17.372Z,79.10
2019-05-16T19:31:49.905Z,78.95
2019-05-16T19:34:18.186Z,79.14
2019-05-16T19:36:47.587Z,79.01
2019-05-16T19:39:16.990Z,78.77
2019-05-16T19:41:47.509Z,79.11
2019-05-16T19:44:16.962Z,79.70
2019-05-16T19:46:46.932Z,79.89
2019-05-16T19:49:16.736Z,80.47
2019-05-16T19:51:48.978Z,80.70
2019-05-16T19:54:17.606Z,81.10
2019-05-16T19:56:47.098Z,81.24
2019-05-16T19:59:16.962Z,81.34
2019-05-16T20:01:46.578Z,81.43
2019-05-16T20:04:18.463Z,81.75
2019-05-16T20:06:47.583Z,81.68
2019-05-16T20:09:17.133Z,81.59
2019-05-16T20:11:46.558Z,81.57
2019-05-16T20:14:19.448Z,81.53
2019-05-16T20:16:47.535Z,81.88
2019-05-16T20:19:17.029Z,82.14
2019-05-16T20:21:47.620Z,82.20
2019-05-16T20:24:17.179Z,82.05
2019-05-16T20:26:46.766Z,82.32
2019-05-16T20:29:17.222Z,82.17
2019-05-16T20:31:47.645Z,81.95
2019-05-16T20:34:17.963Z,81.63
2019-05-16T20:36:49.542Z,81.94
2019-05-16T20:39:20.102Z,82.08
2019-05-16T20:41:49.732Z,82.53
2019-05-16T20:44:19.119Z,82.24
2019-05-16T20:46:49.641Z,82.26
2019-05-16T20:49:19.464Z,82.22
2019-05-16T20:51:50.058Z,82.15
2019-05-16T20:54:20.190Z,81.59
2019-05-16T20:56:49.783Z,81.28
2019-05-16T20:59:19.143Z,81.39
2019-05-16T21:01:49.213Z,81.58
2019-05-16T21:04:18.846Z,81.50
2019-05-16T21:07:00.621Z,81.80
2019-05-16T21:09:19.430Z,81.20
2019-05-16T21:11:50.048Z,80.81
2019-05-16T21:14:20.903Z,80.65
2019-05-16T21:16:50.308Z,80.79
2019-05-16T21:19:19.864Z,81.22
2019-05-16T21:21:49.275Z,80.97
2019-05-16T21:24:18.934Z,81.16
2019-05-16T21:26:48.391Z,80.91
2019-05-16T21:29:19.572Z,81.06
2019-05-16T21:31:48.995Z,81.50
2019-05-16T21:34:19.178Z,81.52
2019-05-16T21:36:48.839Z,81.75
2019-05-16T21:39:18.367Z,81.47
2019-05-16T21:41:47.918Z,81.09
2019-05-16T21:44:17.441Z,80.83
2019-05-16T21:46:47.152Z,80.85
2019-05-16T21:49:19.491Z,81.34
2019-05-16T21:51:47.835Z,81.67
2019-05-16T21:54:17.221Z,81.83
2019-05-16T21:56:47.238Z,81.56
2019-05-16T21:59:16.726Z,81.76
2019-05-16T22:01:47.280Z,81.66
2019-05-16T22:04:16.952Z,81.66
2019-05-16T22:06:47.495Z,81.22
2019-05-16T22:09:17.210Z,81.48
2019-05-16T22:11:46.759Z,81.72
2019-05-16T22:14:22.531Z,81.20
2019-05-16T22:16:51.992Z,81.07
2019-05-16T22:19:21.625Z,81.25
2019-05-16T22:21:51.064Z,81.55
2019-05-16T22:24:20.703Z,81.46
2019-05-16T22:26:50.374Z,81.84
2019-05-16T22:29:19.914Z,81.68
2019-05-16T22:31:49.312Z,81.59
2019-05-16T22:34:18.995Z,81.62
2019-05-16T22:36:49.335Z,81.32
2019-05-16T22:39:19.020Z,81.72
2019-05-16T22:41:49.219Z,81.72
2019-05-16T22:44:18.673Z,81.63
2019-05-16T22:46:48.103Z,81.32
2019-05-16T22:49:17.612Z,81.24
2019-05-16T22:51:47.082Z,81.64
2019-05-16T22:54:17.194Z,81.56
2019-05-16T22:56:47.010Z,81.23
2019-05-16T22:59:16.695Z,81.07
2019-05-16T23:01:46.406Z,81.18
2019-05-16T23:04:16.753Z,80.99
2019-05-16T23:06:46.471Z,81.03
2019-05-16T23:09:16.436Z,81.02
2019-05-16T23:11:46.109Z,80.89
2019-05-16T23:14:17.056Z,80.92
2019-05-16T23:16:46.701Z,80.98
2019-05-16T23:19:17.248Z,81.17
2019-05-16T23:21:47.436Z,81.28
2019-05-16T23:24:17.387Z,81.36
2019-05-16T23:26:47.150Z,81.78
2019-05-16T23:29:17.112Z,81.29
2019-05-16T23:31:47.313Z,81.12
2019-05-16T23:34:18.800Z,81.60
2019-05-16T23:36:48.353Z,81.24
2019-05-16T23:39:17.837Z,81.32
2019-05-16T23:41:47.574Z,81.08
2019-05-16T23:44:16.939Z,81.32
2019-05-16T23:46:47.063Z,80.89
2019-05-16T23:49:17.048Z,80.43
2019-05-16T23:51:47.359Z,80.40
2019-05-16T23:54:17.378Z,80.37
2019-05-16T23:56:46.950Z,80.71
2019-05-16T23:59:17.172Z,80.70
